Time;durP1;ratioP1;P1;durP2;ratioP2;P2;SDS_P1;SDS_P2;PMS_P1;PMS_P2;Temp;Humidity;BMP_temperature;BMP_pressure;BME280_temperature;BME280_humidity;BME280_pressure;Samples;Min_cycle;Max_cycle;Signal;HPM_P1;HPM_P2
2021/10/28 00:13:30;;;;;;;0.20;0.20;;;;;;;;;;5042081;28;20047;-86
2021/10/28 00:15:58;;;;;;;7.03;0.82;;;;;;;;;;5040819;28;20021;-86
2021/10/28 00:18:38;;;;;;;0.40;0.40;;;;;;;;;;5040472;28;20028;-86
2021/10/28 00:21:04;;;;;;;0.45;0.43;;;;;;;;;;5039087;28;20103;-87
2021/10/28 00:23:32;;;;;;;0.10;0.10;;;;;;;;;;5040486;28;20033;-86
2021/10/28 00:25:58;;;;;;;0.20;0.20;;;;;;;;;;5042785;28;20032;-87
2021/10/28 00:28:25;;;;;;;0.13;0.13;;;;;;;;;;5037643;28;20048;-87
2021/10/28 00:30:52;;;;;;;0.10;0.10;;;;;;;;;;5041656;28;20037;-87
2021/10/28 00:33:18;;;;;;;0.20;0.20;;;;;;;;;;5040152;28;20032;-87
2021/10/28 00:35:44;;;;;;;0.20;0.20;;;;;;;;;;5055252;28;20569;-87
2021/10/28 00:38:10;;;;;;;0.35;0.35;;;;;;;;;;5041890;28;20488;-90
2021/10/28 00:40:36;;;;;;;0.57;0.57;;;;;;;;;;5043356;28;20032;-83
2021/10/28 00:43:02;;;;;;;0.10;0.10;;;;;;;;;;5039482;28;20051;-84
2021/10/28 00:45:30;;;;;;;0.85;0.75;;;;;;;;;;5039939;28;20239;-84
2021/10/28 00:47:56;;;;;;;1.45;0.63;;;;;;;;;;5040324;28;20765;-83
2021/10/28 00:50:22;;;;;;;1.02;0.38;;;;;;;;;;5040984;28;20037;-84
2021/10/28 00:52:48;;;;;;;0.22;0.22;;;;;;;;;;5039478;28;20069;-84
2021/10/28 00:55:14;;;;;;;0.93;0.83;;;;;;;;;;5040557;28;20503;-84
2021/10/28 00:57:40;;;;;;;0.10;0.10;;;;;;;;;;5041305;28;20036;-83
2021/10/28 01:00:07;;;;;;;0.63;0.43;;;;;;;;;;5039770;28;20032;-84
2021/10/28 01:02:33;;;;;;;0.10;0.10;;;;;;;;;;5039929;28;20056;-84
2021/10/28 01:04:59;;;;;;;0.20;0.20;;;;;;;;;;5041597;28;20021;-84
2021/10/28 01:07:26;;;;;;;0.30;0.30;;;;;;;;;;5041349;28;20131;-84
2021/10/28 01:09:52;;;;;;;0.17;0.17;;;;;;;;;;5042527;28;20094;-84
2021/10/28 01:12:19;;;;;;;0.10;0.10;;;;;;;;;;5040936;28;20025;-84
2021/10/28 01:14:46;;;;;;;0.40;0.40;;;;;;;;;;5039333;28;20033;-84
2021/10/28 01:17:12;;;;;;;;;;;;;;;;;;5041515;28;20029;-84
2021/10/28 01:19:39;;;;;;;0.57;0.57;;;;;;;;;;5041249;28;19920;-85
2021/10/28 01:22:05;;;;;;;0.10;0.10;;;;;;;;;;5040296;28;20034;-87
2021/10/28 01:24:31;;;;;;;0.57;0.57;;;;;;;;;;5040304;28;20305;-85
2021/10/28 01:27:08;;;;;;;0.30;0.30;;;;;;;;;;5039130;28;20029;-85
2021/10/28 01:29:34;;;;;;;0.28;0.28;;;;;;;;;;5044509;28;20130;-85
2021/10/28 01:32:00;;;;;;;1.45;0.65;;;;;;;;;;5043593;28;20483;-85
2021/10/28 01:34:27;;;;;;;0.20;0.20;;;;;;;;;;5043228;28;20025;-87
2021/10/28 01:36:55;;;;;;;0.65;0.55;;;;;;;;;;5046671;28;20082;-85
2021/10/28 01:39:22;;;;;;;0.28;0.28;;;;;;;;;;5044168;28;20499;-85
2021/10/28 01:41:48;;;;;;;;;;;;;;;;;;5043117;28;20040;-86
2021/10/28 01:44:14;;;;;;;0.50;0.50;;;;;;;;;;5042901;28;19966;-85
2021/10/28 01:46:41;;;;;;;3.40;0.50;;;;;;;;;;5042023;28;20053;-86
2021/10/28 01:49:07;;;;;;;0.70;0.70;;;;;;;;;;5045213;28;20390;-85
2021/10/28 01:51:33;;;;;;;0.22;0.22;;;;;;;;;;5045200;28;20126;-84
2021/10/28 01:53:59;;;;;;;0.30;0.30;;;;;;;;;;5059090;28;20028;-83
2021/10/28 01:56:25;;;;;;;1.05;0.68;;;;;;;;;;5044252;28;20816;-84
2021/10/28 01:58:52;;;;;;;0.10;0.10;;;;;;;;;;5043087;28;20029;-85
2021/10/28 02:01:18;;;;;;;0.93;0.93;;;;;;;;;;5043214;28;20627;-86
2021/10/28 02:03:44;;;;;;;0.10;0.10;;;;;;;;;;5044638;28;20039;-86
2021/10/28 02:06:10;;;;;;;0.10;0.10;;;;;;;;;;5044195;28;20545;-86
2021/10/28 02:08:36;;;;;;;0.30;0.30;;;;;;;;;;5043701;28;20029;-86
2021/10/28 02:11:02;;;;;;;0.20;0.20;;;;;;;;;;5043783;28;20032;-85
2021/10/28 02:13:28;;;;;;;0.88;0.32;;;;;;;;;;5044026;28;20037;-86
2021/10/28 02:15:54;;;;;;;0.20;0.20;;;;;;;;;;5043177;28;20061;-85
2021/10/28 02:18:21;;;;;;;0.40;0.40;;;;;;;;;;5044749;28;20037;-86
2021/10/28 02:20:47;;;;;;;0.10;0.10;;;;;;;;;;5042248;28;20033;-85
2021/10/28 02:23:13;;;;;;;3.78;0.68;;;;;;;;;;5043111;28;20040;-85
2021/10/28 02:25:39;;;;;;;0.10;0.10;;;;;;;;;;5043823;28;20563;-85
2021/10/28 02:28:05;;;;;;;0.22;0.22;;;;;;;;;;5043308;28;20037;-85
2021/10/28 02:30:32;;;;;;;0.20;0.20;;;;;;;;;;5043109;28;20150;-85
2021/10/28 02:32:58;;;;;;;0.93;0.85;;;;;;;;;;5043801;28;20021;-87
2021/10/28 02:35:24;;;;;;;0.30;0.30;;;;;;;;;;5043632;28;20468;-86
2021/10/28 02:37:51;;;;;;;1.57;0.47;;;;;;;;;;5061103;28;20104;-86
2021/10/28 02:40:17;;;;;;;0.20;0.20;;;;;;;;;;5042966;28;20029;-85
2021/10/28 02:42:43;;;;;;;0.10;0.10;;;;;;;;;;5043656;28;20268;-85
2021/10/28 02:45:10;;;;;;;0.10;0.10;;;;;;;;;;5042971;28;20037;-84
2021/10/28 02:47:36;;;;;;;0.30;0.30;;;;;;;;;;5042673;28;20037;-84
2021/10/28 02:50:03;;;;;;;0.35;0.35;;;;;;;;;;5042543;28;20157;-84
2021/10/28 02:52:29;;;;;;;0.20;0.20;;;;;;;;;;5041960;28;20512;-84
2021/10/28 02:54:56;;;;;;;0.10;0.10;;;;;;;;;;5043469;28;20047;-84
2021/10/28 02:57:22;;;;;;;0.90;0.90;;;;;;;;;;5042830;28;20029;-85
2021/10/28 02:59:48;;;;;;;0.20;0.20;;;;;;;;;;5042576;28;20102;-84
2021/10/28 03:02:14;;;;;;;0.10;0.10;;;;;;;;;;5042851;28;20447;-86
2021/10/28 03:04:40;;;;;;;0.32;0.32;;;;;;;;;;5059163;28;20048;-87
2021/10/28 03:07:06;;;;;;;0.30;0.30;;;;;;;;;;5043457;28;20114;-86
2021/10/28 03:09:32;;;;;;;0.27;0.27;;;;;;;;;;5041688;28;20055;-88
2021/10/28 03:12:00;;;;;;;0.10;0.10;;;;;;;;;;5040999;28;20040;-85
2021/10/28 03:27:24;;;;;;;0.20;0.20;;;;;;;;;;5041960;28;20111;-86
2021/10/28 03:29:50;;;;;;;0.20;0.20;;;;;;;;;;5041871;28;20140;-86
2021/10/28 03:32:18;;;;;;;1.00;0.50;;;;;;;;;;5040755;28;20053;-85
2021/10/28 03:34:45;;;;;;;10.45;1.45;;;;;;;;;;5057737;28;20062;-86
2021/10/28 04:06:52;;;;;;;0.00;0.00;;;;;;;;;;5042438;28;20032;-86
2021/10/28 04:20:34;;;;;;;0.17;0.17;;;;;;;;;;5041082;28;20147;-84
2021/10/28 04:31:19;;;;;;;0.10;0.10;;;;;;;;;;5041280;28;20106;-87
2021/10/28 04:33:45;;;;;;;0.40;0.40;;;;;;;;;;5057285;28;20025;-86
2021/10/28 04:36:12;;;;;;;1.58;0.75;;;;;;;;;;5040426;28;20801;-85
2021/10/28 04:38:38;;;;;;;5.63;1.73;;;;;;;;;;5040968;28;20033;-83
2021/10/28 04:41:04;;;;;;;0.10;0.10;;;;;;;;;;5041642;28;20094;-86
2021/10/28 04:43:30;;;;;;;1.33;0.50;;;;;;;;;;5056376;28;20480;-85
2021/10/28 04:45:56;;;;;;;0.10;0.10;;;;;;;;;;5040797;28;20120;-88
2021/10/28 04:48:22;;;;;;;0.32;0.32;;;;;;;;;;5039447;28;20033;-86
2021/10/28 04:50:49;;;;;;;0.10;0.10;;;;;;;;;;5040536;28;20032;-85
2021/10/28 04:53:15;;;;;;;0.10;0.10;;;;;;;;;;5038895;28;20973;-85
2021/10/28 04:55:41;;;;;;;0.10;0.10;;;;;;;;;;5055386;28;20036;-84
2021/10/28 04:58:07;;;;;;;0.47;0.47;;;;;;;;;;5040594;28;20495;-82
2021/10/28 05:00:33;;;;;;;1.90;0.60;;;;;;;;;;5041224;28;20033;-83
2021/10/28 05:02:59;;;;;;;0.17;0.17;;;;;;;;;;5040172;28;20021;-83
2021/10/28 05:05:25;;;;;;;0.15;0.15;;;;;;;;;;5040225;28;20048;-84
2021/10/28 05:07:51;;;;;;;0.10;0.10;;;;;;;;;;5040738;28;20075;-85
2021/10/28 05:10:17;;;;;;;0.47;0.38;;;;;;;;;;5038622;28;20036;-84
2021/10/28 05:12:43;;;;;;;0.10;0.10;;;;;;;;;;5042090;28;20094;-82
2021/10/28 05:15:09;;;;;;;0.20;0.20;;;;;;;;;;5039983;28;20029;-82
2021/10/28 05:17:36;;;;;;;0.63;0.63;;;;;;;;;;5040801;28;20066;-87
2021/10/28 05:20:02;;;;;;;0.15;0.15;;;;;;;;;;5039130;28;20028;-84
2021/10/28 05:22:28;;;;;;;0.40;0.40;;;;;;;;;;5039105;28;20036;-82
2021/10/28 05:24:54;;;;;;;0.37;0.37;;;;;;;;;;5038854;28;20029;-83
2021/10/28 05:27:20;;;;;;;0.30;0.30;;;;;;;;;;5039221;28;20033;-84
2021/10/28 05:29:46;;;;;;;1.70;0.60;;;;;;;;;;5031170;28;20045;-85
2021/10/28 05:32:12;;;;;;;0.15;0.15;;;;;;;;;;5040772;28;20037;-85
2021/10/28 05:34:39;;;;;;;0.28;0.28;;;;;;;;;;5039384;28;20041;-85
2021/10/28 05:37:05;;;;;;;0.20;0.20;;;;;;;;;;5042159;28;20021;-84
2021/10/28 05:39:32;;;;;;;0.10;0.10;;;;;;;;;;5040954;28;20603;-84
2021/10/28 05:41:58;;;;;;;0.20;0.20;;;;;;;;;;5037409;28;20033;-84
2021/10/28 05:44:24;;;;;;;0.10;0.10;;;;;;;;;;5039866;28;20033;-84
2021/10/28 05:46:50;;;;;;;0.77;0.77;;;;;;;;;;5038214;28;20049;-83
2021/10/28 05:49:16;;;;;;;0.40;0.40;;;;;;;;;;5043189;28;20087;-83
2021/10/28 05:51:42;;;;;;;0.28;0.28;;;;;;;;;;5040795;28;20029;-83
2021/10/28 05:54:08;;;;;;;0.30;0.30;;;;;;;;;;5035865;28;20048;-82
2021/10/28 05:56:35;;;;;;;0.10;0.10;;;;;;;;;;5041352;28;20067;-83
2021/10/28 05:59:01;;;;;;;0.47;0.47;;;;;;;;;;5041095;28;20036;-82
2021/10/28 06:01:27;;;;;;;0.47;0.47;;;;;;;;;;5041841;28;20029;-83
2021/10/28 06:03:53;;;;;;;1.60;0.67;;;;;;;;;;5041883;28;20032;-83
2021/10/28 06:06:19;;;;;;;0.30;0.30;;;;;;;;;;5040973;28;20299;-83
2021/10/28 06:08:45;;;;;;;0.40;0.40;;;;;;;;;;5041914;28;20044;-83
2021/10/28 06:11:12;;;;;;;0.20;0.20;;;;;;;;;;5041959;28;20033;-83
2021/10/28 06:13:44;;;;;;;0.20;0.20;;;;;;;;;;5048579;28;20025;-83
2021/10/28 06:16:10;;;;;;;0.30;0.30;;;;;;;;;;5043602;28;20555;-82
2021/10/28 06:18:38;;;;;;;0.82;0.82;;;;;;;;;;5044364;28;20044;-85
2021/10/28 06:21:05;;;;;;;0.80;0.52;;;;;;;;;;5045554;28;20033;-85
2021/10/28 06:23:32;;;;;;;0.90;0.65;;;;;;;;;;5045560;28;20032;-85
2021/10/28 06:25:58;;;;;;;0.65;0.65;;;;;;;;;;5045229;28;20028;-85
2021/10/28 06:28:24;;;;;;;0.13;0.13;;;;;;;;;;5045720;28;20063;-85
2021/10/28 06:30:50;;;;;;;0.00;0.00;;;;;;;;;;5047378;28;20419;-84
2021/10/28 06:33:26;;;;;;;0.10;0.10;;;;;;;;;;5045394;28;20025;-86
2021/10/28 06:35:52;;;;;;;0.30;0.30;;;;;;;;;;5044642;28;20037;-85
2021/10/28 06:38:18;;;;;;;0.90;0.70;;;;;;;;;;5044421;28;20472;-83
2021/10/28 06:40:44;;;;;;;0.20;0.20;;;;;;;;;;5044717;28;20037;-84
2021/10/28 06:43:10;;;;;;;0.10;0.10;;;;;;;;;;5046780;28;20072;-84
2021/10/28 06:45:36;;;;;;;0.10;0.10;;;;;;;;;;5045160;28;20176;-84
2021/10/28 06:48:02;;;;;;;0.17;0.17;;;;;;;;;;5044981;28;20716;-84
2021/10/28 06:50:33;;;;;;;0.30;0.30;;;;;;;;;;5044860;28;20036;-84
2021/10/28 06:53:09;;;;;;;0.65;0.43;;;;;;;;;;5043947;28;20275;-84
2021/10/28 07:03:23;;;;;;;0.32;0.32;;;;;;;;;;5052724;28;20063;-83
2021/10/28 07:05:49;;;;;;;0.20;0.20;;;;;;;;;;5050568;28;20821;-84
2021/10/28 07:08:16;;;;;;;0.30;0.30;;;;;;;;;;5053162;28;20029;-84
2021/10/28 07:10:44;;;;;;;0.10;0.10;;;;;;;;;;5051723;28;20730;-84
2021/10/28 07:13:19;;;;;;;0.50;0.50;;;;;;;;;;5060592;28;20478;-85
2021/10/28 07:27:13;;;;;;;0.38;0.30;;;;;;;;;;4989088;28;20104;-86
2021/10/28 07:30:14;;;;;;;0.10;0.10;;;;;;;;;;4995519;28;20046;-86
2021/10/28 07:35:31;;;;;;;0.30;0.30;;;;;;;;;;4994003;28;20510;-84
2021/10/28 07:38:45;;;;;;;0.05;0.05;;;;;;;;;;4995660;28;20387;-84
2021/10/28 08:18:50;;;;;;;0.25;0.25;;;;;;;;;;5019008;28;20737;-85
2021/10/28 08:24:12;;;;;;;0.80;0.63;;;;;;;;;;5020208;28;20719;-85
2021/10/28 08:29:34;;;;;;;0.68;0.30;;;;;;;;;;5041048;28;20600;-86
2021/10/28 08:32:00;;;;;;;0.08;0.08;;;;;;;;;;5040503;28;20582;-85
2021/10/28 08:34:29;;;;;;;0.00;0.00;;;;;;;;;;5053337;28;20764;-86
2021/10/28 08:36:56;;;;;;;0.80;0.77;;;;;;;;;;5042023;28;20036;-86
2021/10/28 08:39:22;;;;;;;;;;;;;;;;;;5041689;28;20028;-86
2021/10/28 08:41:49;;;;;;;0.40;0.30;;;;;;;;;;5039886;28;20283;-86
2021/10/28 08:44:15;;;;;;;;;;;;;;;;;;5042562;28;20102;-85
2021/10/28 08:46:44;;;;;;;0.85;0.70;;;;;;;;;;5039410;28;20384;-85
2021/10/28 08:49:33;;;;;;;0.55;0.20;;;;;;;;;;5041292;28;20520;-85
2021/10/28 09:24:37;;;;;;;0.25;0.25;;;;;;;;;;5057286;28;20047;-84
2021/10/28 09:45:57;;;;;;;0.25;0.25;;;;;;;;;;5055116;28;20542;-85
2021/10/28 09:49:47;;;;;;;0.13;0.13;;;;;;;;;;5047136;28;20037;-85
2021/10/28 09:51:18;;;;;;;0.77;0.55;;;;;;;;;;5053531;28;20097;-85
2021/10/28 09:59:23;;;;;;;3.22;1.92;;;;;;;;;;5061004;28;20496;-84
2021/10/28 10:01:49;;;;;;;0.10;0.10;;;;;;;;;;5059242;28;20071;-86
2021/10/28 10:04:15;;;;;;;0.10;0.10;;;;;;;;;;5064253;28;20059;-86
2021/10/28 10:06:44;;;;;;;0.80;0.65;;;;;;;;;;5056990;28;20029;-85
2021/10/28 10:09:10;;;;;;;0.38;0.38;;;;;;;;;;5057268;28;20039;-85
2021/10/28 10:11:36;;;;;;;0.43;0.43;;;;;;;;;;5058120;28;20032;-85
2021/10/28 10:14:03;;;;;;;0.52;0.22;;;;;;;;;;5058528;28;20219;-85
2021/10/28 10:16:32;;;;;;;0.80;0.75;;;;;;;;;;5059629;28;20387;-85
2021/10/28 10:19:01;;;;;;;5.15;0.30;;;;;;;;;;5057399;28;20035;-84
2021/10/28 10:24:33;;;;;;;0.25;0.25;;;;;;;;;;5057836;28;20514;-86
2021/10/28 11:24:07;;;;;;;0.17;0.17;;;;;;;;;;5062415;28;20047;-86
2021/10/28 11:27:09;;;;;;;4.47;0.82;;;;;;;;;;5062264;28;20028;-88
2021/10/28 12:22:45;;;;;;;0.10;0.10;;;;;;;;;;5006747;28;20224;-82
2021/10/28 12:45:00;;;;;;;0.10;0.10;;;;;;;;;;5004363;28;20131;-87
2021/10/28 13:51:53;;;;;;;0.28;0.28;;;;;;;;;;5038951;28;20903;-86
2021/10/28 13:54:39;;;;;;;0.43;0.40;;;;;;;;;;5041878;28;20374;-86
2021/10/28 15:02:26;;;;;;;0.38;0.38;;;;;;;;;;5045113;28;20032;-87
2021/10/28 15:40:16;;;;;;;0.20;0.20;;;;;;;;;;5044525;28;20037;-86
2021/10/28 16:23:36;;;;;;;0.55;0.45;;;;;;;;;;5037380;28;20610;-87
2021/10/28 16:26:03;;;;;;;0.28;0.28;;;;;;;;;;5043605;28;20467;-87
2021/10/28 16:28:29;;;;;;;;;;;;;;;;;;5044201;28;20028;-87
2021/10/28 16:30:55;;;;;;;0.20;0.20;;;;;;;;;;5043714;28;20015;-87
2021/10/28 16:33:21;;;;;;;17.58;0.55;;;;;;;;;;5043552;28;20060;-87
2021/10/28 16:35:47;;;;;;;0.13;0.13;;;;;;;;;;5043538;28;20032;-87
2021/10/28 16:38:13;;;;;;;0.20;0.20;;;;;;;;;;5043182;28;20516;-86
2021/10/28 16:40:40;;;;;;;0.77;0.77;;;;;;;;;;5043479;28;20181;-86
2021/10/28 16:43:07;;;;;;;0.30;0.30;;;;;;;;;;5044824;28;20044;-87
2021/10/28 16:45:33;;;;;;;0.10;0.10;;;;;;;;;;5039766;28;20037;-86
2021/10/28 16:47:59;;;;;;;0.20;0.20;;;;;;;;;;5043968;28;20100;-86
2021/10/28 16:50:25;;;;;;;0.20;0.20;;;;;;;;;;5042870;28;20037;-86
2021/10/28 16:52:52;;;;;;;0.28;0.20;;;;;;;;;;5043317;28;20100;-86
2021/10/28 16:55:18;;;;;;;0.30;0.30;;;;;;;;;;5044451;28;20033;-87
2021/10/28 16:57:45;;;;;;;0.20;0.20;;;;;;;;;;5043277;28;20544;-86
2021/10/28 17:00:11;;;;;;;5.45;0.73;;;;;;;;;;5042834;28;20033;-86
2021/10/28 17:02:37;;;;;;;0.20;0.20;;;;;;;;;;5043014;28;20097;-86
2021/10/28 17:05:04;;;;;;;0.47;0.47;;;;;;;;;;5042937;28;20115;-86
2021/10/28 17:07:30;;;;;;;0.57;0.57;;;;;;;;;;5042869;28;20292;-87
2021/10/28 17:09:59;;;;;;;0.57;0.47;;;;;;;;;;5044782;28;20048;-86
2021/10/28 17:12:25;;;;;;;6.97;1.98;;;;;;;;;;5042495;28;21059;-86
2021/10/28 17:14:52;;;;;;;0.37;0.37;;;;;;;;;;5042629;28;20494;-88
2021/10/28 17:17:18;;;;;;;4.65;2.28;;;;;;;;;;5042439;28;20021;-89
2021/10/28 17:19:46;;;;;;;0.20;0.20;;;;;;;;;;5042540;28;20120;-89
2021/10/28 17:22:12;;;;;;;0.30;0.30;;;;;;;;;;5056008;28;20136;-88
2021/10/28 17:24:45;;;;;;;0.20;0.20;;;;;;;;;;5041469;28;20540;-89
2021/10/28 17:27:11;;;;;;;0.75;0.75;;;;;;;;;;5042515;28;20287;-85
2021/10/28 17:29:39;;;;;;;0.45;0.30;;;;;;;;;;5040098;28;20033;-83
2021/10/28 17:32:05;;;;;;;1.80;0.80;;;;;;;;;;5041618;28;20045;-85
2021/10/28 17:34:34;;;;;;;0.85;0.60;;;;;;;;;;5041234;28;20082;-85
2021/10/28 17:37:00;;;;;;;0.57;0.57;;;;;;;;;;5043206;28;20127;-84
2021/10/28 17:39:27;;;;;;;0.20;0.20;;;;;;;;;;5042918;28;20057;-86
2021/10/28 17:41:54;;;;;;;0.30;0.30;;;;;;;;;;5058391;28;20862;-87
2021/10/28 17:44:23;;;;;;;0.10;0.10;;;;;;;;;;5042942;28;20025;-87
2021/10/28 17:46:49;;;;;;;0.28;0.28;;;;;;;;;;5041782;28;20053;-86
2021/10/28 17:49:15;;;;;;;0.32;0.32;;;;;;;;;;5044516;28;20039;-87
2021/10/28 17:51:41;;;;;;;0.85;0.85;;;;;;;;;;5055424;28;20041;-87
2021/10/28 17:54:10;;;;;;;0.20;0.20;;;;;;;;;;5040665;28;20021;-88
2021/10/28 17:56:37;;;;;;;0.38;0.38;;;;;;;;;;5040354;28;20041;-86
2021/10/28 17:59:04;;;;;;;;;;;;;;;;;;5055933;28;20792;-87
2021/10/28 18:01:30;;;;;;;0.10;0.10;;;;;;;;;;5042303;28;20294;-86
2021/10/28 18:03:59;;;;;;;0.50;0.50;;;;;;;;;;5041669;28;20051;-87
2021/10/28 18:06:26;;;;;;;0.20;0.20;;;;;;;;;;5039675;28;20032;-87
2021/10/28 18:08:52;;;;;;;0.10;0.10;;;;;;;;;;5040239;28;20507;-87
2021/10/28 18:11:18;;;;;;;0.10;0.10;;;;;;;;;;5043776;28;20033;-88
2021/10/28 18:13:44;;;;;;;0.20;0.20;;;;;;;;;;5044844;28;20096;-87
2021/10/28 18:16:10;;;;;;;0.90;0.50;;;;;;;;;;5044411;28;20120;-87
2021/10/28 18:18:37;;;;;;;0.28;0.28;;;;;;;;;;5043849;28;20703;-86
2021/10/28 18:21:04;;;;;;;1.27;1.00;;;;;;;;;;5043291;28;20420;-88
2021/10/28 18:23:32;;;;;;;0.15;0.15;;;;;;;;;;5045170;28;20145;-87
2021/10/28 18:25:59;;;;;;;1.95;0.90;;;;;;;;;;5044243;28;20029;-87
2021/10/28 18:28:25;;;;;;;2.63;1.17;;;;;;;;;;5044210;28;20491;-86
2021/10/28 18:30:51;;;;;;;0.52;0.50;;;;;;;;;;5046259;28;20041;-87
2021/10/28 18:33:17;;;;;;;0.70;0.55;;;;;;;;;;5043345;28;20774;-87
2021/10/28 18:35:44;;;;;;;0.73;0.57;;;;;;;;;;5044792;28;20078;-87
2021/10/28 18:38:12;;;;;;;0.32;0.32;;;;;;;;;;5044676;28;20274;-87
2021/10/28 18:40:38;;;;;;;0.65;0.63;;;;;;;;;;5044905;28;20518;-88
2021/10/28 18:43:05;;;;;;;0.20;0.20;;;;;;;;;;5044868;28;20028;-88
2021/10/28 18:45:32;;;;;;;0.10;0.10;;;;;;;;;;5044412;28;20048;-87
2021/10/28 18:47:58;;;;;;;;;;;;;;;;;;5043691;28;20029;-87
2021/10/28 18:50:24;;;;;;;0.50;0.50;;;;;;;;;;5043030;28;19920;-87
2021/10/28 18:52:50;;;;;;;0.13;0.13;;;;;;;;;;5043332;28;20043;-87
2021/10/28 18:55:16;;;;;;;0.20;0.20;;;;;;;;;;5044327;28;21159;-87
2021/10/28 18:57:42;;;;;;;0.35;0.35;;;;;;;;;;5043775;28;20057;-87
2021/10/28 19:00:09;;;;;;;0.45;0.45;;;;;;;;;;5043237;28;20039;-87
2021/10/28 19:02:36;;;;;;;0.65;0.65;;;;;;;;;;5043095;28;20037;-87
2021/10/28 19:05:04;;;;;;;0.10;0.10;;;;;;;;;;5042312;28;20687;-87
2021/10/28 19:07:30;;;;;;;2.63;0.60;;;;;;;;;;5044946;28;20108;-87
2021/10/28 19:09:56;;;;;;;0.68;0.68;;;;;;;;;;5060655;28;20044;-87
2021/10/28 19:12:23;;;;;;;0.13;0.13;;;;;;;;;;5042459;28;20094;-88
2021/10/28 19:14:49;;;;;;;3.65;1.40;;;;;;;;;;5043666;28;20586;-87
2021/10/28 19:17:15;;;;;;;1.87;0.93;;;;;;;;;;5043529;28;20479;-87
2021/10/28 19:19:41;;;;;;;0.23;0.23;;;;;;;;;;5043076;28;20284;-87
2021/10/28 19:22:09;;;;;;;0.20;0.20;;;;;;;;;;5041724;28;20029;-88
2021/10/28 19:24:35;;;;;;;0.30;0.30;;;;;;;;;;5043356;28;20099;-88
2021/10/28 19:27:01;;;;;;;0.98;0.73;;;;;;;;;;5041042;28;20047;-88
2021/10/28 19:29:27;;;;;;;1.45;1.15;;;;;;;;;;5041583;28;20047;-88
2021/10/28 19:32:01;;;;;;;0.20;0.20;;;;;;;;;;5058629;28;20114;-88
2021/10/28 19:34:34;;;;;;;0.45;0.43;;;;;;;;;;5043425;28;20145;-87
2021/10/28 19:37:07;;;;;;;0.32;0.32;;;;;;;;;;5046217;28;20107;-85
2021/10/28 19:47:51;;;;;;;0.20;0.20;;;;;;;;;;5025560;28;20092;-87
2021/10/28 19:50:17;;;;;;;0.30;0.30;;;;;;;;;;5025552;28;20065;-87
2021/10/28 19:52:44;;;;;;;0.30;0.30;;;;;;;;;;5009015;28;20026;-87
2021/10/28 19:55:10;;;;;;;0.47;0.32;;;;;;;;;;5026556;28;20031;-86
2021/10/28 19:57:38;;;;;;;0.30;0.30;;;;;;;;;;5025967;28;20029;-86
2021/10/28 20:03:04;;;;;;;2.47;0.43;;;;;;;;;;5026160;28;20045;-86
2021/10/28 20:21:07;;;;;;;0.82;0.60;;;;;;;;;;5047559;28;20040;-87
2021/10/28 20:23:33;;;;;;;0.35;0.35;;;;;;;;;;5047142;28;20033;-86
2021/10/28 20:25:59;;;;;;;0.53;0.53;;;;;;;;;;5047120;28;20108;-86
2021/10/28 20:28:26;;;;;;;0.30;0.30;;;;;;;;;;5047817;28;20075;-87
2021/10/28 20:30:58;;;;;;;0.90;0.50;;;;;;;;;;5047837;28;20132;-86
2021/10/28 20:33:27;;;;;;;0.20;0.20;;;;;;;;;;5046342;28;20448;-86
2021/10/28 20:38:34;;;;;;;0.30;0.30;;;;;;;;;;5046961;28;20037;-86
2021/10/28 20:41:00;;;;;;;2.03;0.87;;;;;;;;;;5046795;28;20056;-86
2021/10/28 20:43:26;;;;;;;0.93;0.50;;;;;;;;;;5046500;28;20024;-87
2021/10/28 20:45:52;;;;;;;0.13;0.13;;;;;;;;;;5045849;28;20044;-87
2021/10/28 20:48:18;;;;;;;0.50;0.32;;;;;;;;;;5045926;28;20029;-86
2021/10/28 20:50:44;;;;;;;0.30;0.30;;;;;;;;;;5044760;28;20095;-86
2021/10/28 20:53:11;;;;;;;0.70;0.70;;;;;;;;;;5046172;28;20059;-86
2021/10/28 20:55:37;;;;;;;0.10;0.10;;;;;;;;;;5045025;28;20045;-86
2021/10/28 20:58:03;;;;;;;0.20;0.20;;;;;;;;;;5048380;28;20033;-87
2021/10/28 21:00:30;;;;;;;2.28;1.33;;;;;;;;;;5046372;28;20029;-87
2021/10/28 21:02:59;;;;;;;0.22;0.22;;;;;;;;;;5045996;28;20054;-87
2021/10/28 21:05:25;;;;;;;0.45;0.25;;;;;;;;;;5046120;28;20032;-86
2021/10/28 21:07:52;;;;;;;0.10;0.10;;;;;;;;;;5046507;28;20488;-86
2021/10/28 21:10:23;;;;;;;0.22;0.22;;;;;;;;;;5046171;28;20564;-87
2021/10/28 21:12:49;;;;;;;0.30;0.30;;;;;;;;;;5047051;28;20863;-87
2021/10/28 21:15:16;;;;;;;0.30;0.30;;;;;;;;;;5046342;28;20055;-87
2021/10/28 21:17:43;;;;;;;1.15;0.80;;;;;;;;;;5046265;28;20090;-86
2021/10/28 21:20:10;;;;;;;0.30;0.30;;;;;;;;;;5046538;28;20025;-86
2021/10/28 21:22:36;;;;;;;0.30;0.30;;;;;;;;;;5046347;28;21063;-87
2021/10/28 21:25:05;;;;;;;0.10;0.10;;;;;;;;;;5047089;28;20032;-86
2021/10/28 21:27:31;;;;;;;0.10;0.10;;;;;;;;;;5045575;28;20032;-85
2021/10/28 21:29:57;;;;;;;0.47;0.30;;;;;;;;;;5046070;28;20043;-83
2021/10/28 21:32:23;;;;;;;0.23;0.23;;;;;;;;;;5045301;28;20158;-89
2021/10/28 21:34:49;;;;;;;0.10;0.10;;;;;;;;;;5045118;28;20284;-91
2021/10/28 21:37:18;;;;;;;0.25;0.25;;;;;;;;;;5048597;28;20032;-89
2021/10/28 21:39:44;;;;;;;0.28;0.28;;;;;;;;;;5043509;28;20033;-88
2021/10/28 21:42:10;;;;;;;0.13;0.10;;;;;;;;;;5046101;28;20075;-88
2021/10/28 21:44:37;;;;;;;0.63;0.43;;;;;;;;;;5045733;28;20391;-88
2021/10/28 21:47:04;;;;;;;0.22;0.22;;;;;;;;;;5049800;28;20041;-86
2021/10/28 21:49:31;;;;;;;0.65;0.43;;;;;;;;;;5050135;28;20029;-86
2021/10/28 21:52:07;;;;;;;0.85;0.85;;;;;;;;;;5048900;28;20114;-86
2021/10/28 21:54:47;;;;;;;0.17;0.17;;;;;;;;;;5050317;28;20064;-86
2021/10/28 22:00:06;;;;;;;0.25;0.25;;;;;;;;;;5050830;28;20407;-86
2021/10/28 22:26:46;;;;;;;0.17;0.17;;;;;;;;;;5049860;28;20447;-86
2021/10/28 22:29:12;;;;;;;0.22;0.22;;;;;;;;;;5064956;28;20029;-86
2021/10/28 22:31:38;;;;;;;0.20;0.20;;;;;;;;;;5049768;28;20032;-86
2021/10/28 22:34:05;;;;;;;0.57;0.57;;;;;;;;;;5049654;28;20033;-87
2021/10/28 22:36:45;;;;;;;0.28;0.28;;;;;;;;;;5049983;28;20472;-86
2021/10/28 22:39:17;;;;;;;0.30;0.30;;;;;;;;;;5049856;28;20111;-86
2021/10/28 22:41:44;;;;;;;0.10;0.10;;;;;;;;;;5049130;28;20607;-85
2021/10/28 22:44:10;;;;;;;0.20;0.20;;;;;;;;;;5049271;28;20422;-86
2021/10/28 22:46:36;;;;;;;0.40;0.40;;;;;;;;;;5050019;28;20287;-86
2021/10/28 22:49:03;;;;;;;0.20;0.20;;;;;;;;;;5051092;28;20350;-86
2021/10/28 22:51:29;;;;;;;0.10;0.10;;;;;;;;;;5055281;28;20070;-87
2021/10/28 22:53:56;;;;;;;1.40;0.63;;;;;;;;;;5053051;28;20029;-87
2021/10/28 22:56:22;;;;;;;0.13;0.13;;;;;;;;;;5046829;28;20033;-91
2021/10/28 22:58:55;;;;;;;0.30;0.30;;;;;;;;;;5050040;28;20377;-87
2021/10/28 23:01:27;;;;;;;0.20;0.20;;;;;;;;;;5050567;28;20339;-90
2021/10/28 23:07:20;;;;;;;0.20;0.20;;;;;;;;;;5007198;28;20092;-90
2021/10/28 23:20:51;;;;;;;0.45;0.45;;;;;;;;;;4940160;28;20094;-89
2021/10/28 23:23:18;;;;;;;0.60;0.60;;;;;;;;;;4933913;29;20031;-89
2021/10/28 23:25:44;;;;;;;0.10;0.10;;;;;;;;;;4945236;28;20095;-89
2021/10/28 23:28:11;;;;;;;0.13;0.13;;;;;;;;;;4949083;29;20134;-89
2021/10/28 23:30:37;;;;;;;0.20;0.20;;;;;;;;;;4948922;28;20043;-88
2021/10/28 23:33:04;;;;;;;0.88;0.88;;;;;;;;;;4936502;29;20413;-88
2021/10/28 23:35:31;;;;;;;0.65;0.43;;;;;;;;;;4936628;29;20483;-89
2021/10/28 23:37:57;;;;;;;0.22;0.22;;;;;;;;;;4946287;28;20067;-89
2021/10/28 23:40:24;;;;;;;0.20;0.20;;;;;;;;;;4954448;28;20522;-87
2021/10/28 23:42:50;;;;;;;0.20;0.20;;;;;;;;;;4984494;28;20097;-89
2021/10/28 23:45:16;;;;;;;0.22;0.22;;;;;;;;;;4948795;28;20034;-88
2021/10/28 23:47:42;;;;;;;0.00;0.00;;;;;;;;;;4984492;28;20550;-89
2021/10/28 23:50:09;;;;;;;0.13;0.13;;;;;;;;;;4968095;28;20058;-89
2021/10/28 23:52:35;;;;;;;0.32;0.32;;;;;;;;;;5054658;28;20029;-88
2021/10/28 23:55:02;;;;;;;0.53;0.53;;;;;;;;;;5049295;28;20166;-86
2021/10/28 23:57:28;;;;;;;;;;;;;;;;;;5044310;28;20024;-86
2021/10/28 23:59:54;;;;;;;0.10;0.10;;;;;;;;;;5041267;28;20303;-86
